createdAt,value
2023-03-19T00:00:31.699Z,8.10
2023-03-19T00:02:58.813Z,8.43
2023-03-19T00:05:30.373Z,7.50
2023-03-19T00:07:57.565Z,7.53
2023-03-19T00:10:30.220Z,9.07
2023-03-19T00:12:57.464Z,8.07
2023-03-19T00:15:24.679Z,7.95
2023-03-19T00:18:00.816Z,7.40
2023-03-19T00:20:28.155Z,7.93
2023-03-19T00:22:56.303Z,7.20
2023-03-19T00:25:23.905Z,7.62
2023-03-19T00:28:11.115Z,8.18
2023-03-19T00:31:31.616Z,7.37
2023-03-19T00:33:36.341Z,8.02
2023-03-19T00:36:04.079Z,6.97
2023-03-19T00:38:31.052Z,7.75
2023-03-19T00:40:58.065Z,8.13
2023-03-19T00:43:25.586Z,7.78
2023-03-19T00:45:52.854Z,7.68
2023-03-19T00:48:23.507Z,8.40
2023-03-19T00:50:51.053Z,10.00
2023-03-19T00:53:18.615Z,8.95
2023-03-19T00:55:46.525Z,10.05
2023-03-19T00:58:13.603Z,9.43
2023-03-19T01:00:40.586Z,10.10
2023-03-19T01:03:07.685Z,9.80
2023-03-19T01:08:03.938Z,11.20
2023-03-19T01:10:33.695Z,10.88
2023-03-19T01:13:00.631Z,9.68
2023-03-19T01:15:27.777Z,8.68
2023-03-19T01:17:54.839Z,9.13
2023-03-19T01:20:24.307Z,9.57
2023-03-19T01:22:51.358Z,10.00
2023-03-19T01:25:18.551Z,7.85
2023-03-19T01:27:46.716Z,8.57
2023-03-19T01:30:14.616Z,10.13
2023-03-19T01:32:41.637Z,10.50
2023-03-19T01:35:09.978Z,11.65
2023-03-19T01:37:37.741Z,10.02
2023-03-19T01:40:06.191Z,10.80
2023-03-19T01:42:34.017Z,9.77
2023-03-19T01:45:03.908Z,8.98
2023-03-19T01:50:00.237Z,8.90
2023-03-19T01:52:32.320Z,9.00
2023-03-19T01:55:02.422Z,8.93
2023-03-19T01:57:31.479Z,9.00
2023-03-19T02:00:02.385Z,9.25
2023-03-19T02:02:32.016Z,8.30
2023-03-19T02:05:05.017Z,8.35
2023-03-19T02:07:34.475Z,8.85
2023-03-19T02:10:03.793Z,8.57
2023-03-19T02:12:30.712Z,8.32
2023-03-19T02:14:57.670Z,8.82
2023-03-19T02:17:24.658Z,9.00
2023-03-19T02:20:05.519Z,9.45
2023-03-19T02:22:33.234Z,8.68
2023-03-19T02:25:06.950Z,8.23
2023-03-19T02:27:34.641Z,8.43
2023-03-19T02:30:07.954Z,8.07
2023-03-19T02:32:34.968Z,8.20
2023-03-19T02:35:02.035Z,8.73
2023-03-19T02:37:33.493Z,9.07
2023-03-19T02:40:10.625Z,8.23
2023-03-19T02:42:37.974Z,9.52
2023-03-19T02:45:05.550Z,9.75
2023-03-19T02:47:32.453Z,9.23
2023-03-19T02:49:59.395Z,9.05
2023-03-19T02:52:26.410Z,10.30
2023-03-19T02:54:53.550Z,9.45
2023-03-19T02:57:21.371Z,8.52
2023-03-19T02:59:48.313Z,9.75
2023-03-19T03:02:15.718Z,8.40
2023-03-19T03:04:42.988Z,10.30
2023-03-19T03:07:09.928Z,11.25
2023-03-19T03:09:36.959Z,9.77
2023-03-19T03:12:04.745Z,9.30
2023-03-19T03:14:32.058Z,10.25
2023-03-19T03:16:59.077Z,10.48
2023-03-19T03:19:26.119Z,10.02
2023-03-19T03:21:53.141Z,10.30
2023-03-19T03:24:20.114Z,9.63
2023-03-19T03:26:47.061Z,11.18
2023-03-19T03:29:14.184Z,10.57
2023-03-19T03:31:41.576Z,9.77
2023-03-19T03:34:08.609Z,9.60
2023-03-19T03:36:35.745Z,9.93
2023-03-19T03:39:02.841Z,10.68
2023-03-19T03:41:29.961Z,10.50
2023-03-19T03:43:57.881Z,10.52
2023-03-19T03:46:25.178Z,10.10
2023-03-19T03:48:52.174Z,10.35
2023-03-19T03:51:19.867Z,10.93
2023-03-19T03:53:46.816Z,11.25
2023-03-19T03:56:14.263Z,11.02
2023-03-19T03:58:41.922Z,10.27
2023-03-19T04:01:14.604Z,10.82
2023-03-19T04:03:41.822Z,9.82
2023-03-19T04:06:13.802Z,10.20
2023-03-19T04:08:40.782Z,9.82
2023-03-19T04:11:08.403Z,10.55
2023-03-19T04:13:37.330Z,10.77
2023-03-19T04:16:06.786Z,12.00
2023-03-19T04:18:34.485Z,11.10
2023-03-19T04:21:01.669Z,11.23
2023-03-19T04:23:28.682Z,9.55
2023-03-19T04:26:03.086Z,11.95
2023-03-19T04:28:30.886Z,10.30
2023-03-19T04:31:06.898Z,10.90
2023-03-19T04:33:34.625Z,10.98
2023-03-19T04:36:02.210Z,11.40
2023-03-19T04:38:29.673Z,10.63
2023-03-19T04:40:57.312Z,10.60
2023-03-19T04:43:25.082Z,11.15
2023-03-19T04:45:52.344Z,10.88
2023-03-19T04:48:19.320Z,11.30
2023-03-19T04:50:47.546Z,10.80
2023-03-19T04:53:14.667Z,11.68
2023-03-19T04:55:41.981Z,12.18
2023-03-19T04:58:11.593Z,11.75
2023-03-19T05:00:38.608Z,11.50
2023-03-19T05:03:05.618Z,11.65
2023-03-19T05:05:32.596Z,10.70
2023-03-19T05:07:59.538Z,11.77
2023-03-19T05:10:26.473Z,12.60
2023-03-19T05:12:53.458Z,12.23
2023-03-19T05:15:20.450Z,12.37
2023-03-19T05:17:47.406Z,12.07
2023-03-19T05:20:14.601Z,11.02
2023-03-19T05:22:41.940Z,12.85
2023-03-19T05:25:09.094Z,12.32
2023-03-19T05:27:36.763Z,11.98
2023-03-19T05:30:05.741Z,12.32
2023-03-19T05:32:33.104Z,13.27
2023-03-19T05:35:00.133Z,12.63
2023-03-19T05:37:27.204Z,10.88
2023-03-19T05:39:54.131Z,12.88
2023-03-19T05:42:21.369Z,11.07
2023-03-19T05:44:49.224Z,10.95
2023-03-19T05:47:16.590Z,11.75
2023-03-19T05:49:43.505Z,11.43
2023-03-19T05:52:11.427Z,10.52
2023-03-19T05:54:38.598Z,10.68
2023-03-19T05:57:05.578Z,10.77
2023-03-19T05:59:32.661Z,10.45
2023-03-19T06:02:00.103Z,10.55
2023-03-19T06:04:27.555Z,12.32
2023-03-19T06:06:54.520Z,10.32
2023-03-19T06:09:21.496Z,10.15
2023-03-19T06:11:48.436Z,10.38
2023-03-19T06:14:15.976Z,10.60
2023-03-19T06:16:42.983Z,11.12
2023-03-19T06:19:10.597Z,11.45
2023-03-19T06:21:37.515Z,9.93
2023-03-19T06:24:04.558Z,10.38
2023-03-19T06:26:31.619Z,10.38
2023-03-19T06:28:58.676Z,10.63
2023-03-19T06:31:26.059Z,10.60
2023-03-19T06:33:54.173Z,10.77
2023-03-19T06:36:21.179Z,10.27
2023-03-19T06:38:48.178Z,10.30
2023-03-19T06:41:15.089Z,10.68
2023-03-19T06:43:42.561Z,9.88
2023-03-19T06:46:11.677Z,9.73
2023-03-19T06:48:38.900Z,10.27
2023-03-19T06:51:08.427Z,10.82
2023-03-19T06:53:35.305Z,11.10
2023-03-19T06:56:02.245Z,10.00
2023-03-19T06:58:29.253Z,10.50
2023-03-19T07:00:57.126Z,10.65
2023-03-19T07:03:24.207Z,10.45
2023-03-19T07:05:52.019Z,9.45
2023-03-19T07:08:20.367Z,10.20
2023-03-19T07:10:47.375Z,10.52
2023-03-19T07:13:14.708Z,10.15
2023-03-19T07:15:41.684Z,10.35
2023-03-19T07:18:08.624Z,9.60
2023-03-19T07:20:35.866Z,9.20
2023-03-19T07:23:03.608Z,10.02
2023-03-19T07:25:30.962Z,10.57
2023-03-19T07:27:58.113Z,9.80
2023-03-19T07:30:25.235Z,10.38
2023-03-19T07:32:52.210Z,9.23
2023-03-19T07:35:19.237Z,10.07
2023-03-19T07:37:46.138Z,9.75
2023-03-19T07:40:13.256Z,9.70
2023-03-19T07:42:40.411Z,9.30
2023-03-19T07:45:07.977Z,9.88
2023-03-19T07:47:34.901Z,9.70
2023-03-19T07:50:01.897Z,9.70
2023-03-19T07:52:28.853Z,9.18
2023-03-19T07:54:55.950Z,9.60
2023-03-19T07:57:23.058Z,9.25
2023-03-19T07:59:50.038Z,10.57
2023-03-19T08:02:17.369Z,8.63
2023-03-19T08:04:44.523Z,8.73
2023-03-19T08:07:13.055Z,8.70
2023-03-19T08:09:40.892Z,9.63
2023-03-19T08:12:08.592Z,8.85
2023-03-19T08:14:35.886Z,10.32
2023-03-19T08:17:02.864Z,10.10
2023-03-19T08:19:29.937Z,9.77
2023-03-19T08:21:56.876Z,8.75
2023-03-19T08:24:23.996Z,8.45
2023-03-19T08:26:51.009Z,9.75
2023-03-19T08:29:19.099Z,8.68
2023-03-19T08:31:46.545Z,8.52
2023-03-19T08:34:13.823Z,8.77
2023-03-19T08:36:41.023Z,7.97
2023-03-19T08:39:08.101Z,8.35
2023-03-19T08:41:35.096Z,7.93
2023-03-19T08:44:02.278Z,7.90
2023-03-19T08:46:29.900Z,8.38
2023-03-19T08:48:57.108Z,8.82
2023-03-19T08:51:26.297Z,8.18
2023-03-19T08:53:53.617Z,7.62
2023-03-19T08:56:20.695Z,8.52
2023-03-19T08:58:47.685Z,8.10
2023-03-19T09:01:15.620Z,8.45
2023-03-19T09:03:45.595Z,7.62
2023-03-19T09:06:14.792Z,9.50
2023-03-19T09:08:42.460Z,8.00
2023-03-19T09:11:11.187Z,8.68
2023-03-19T09:13:38.422Z,8.55
2023-03-19T09:16:06.035Z,7.35
2023-03-19T09:18:34.493Z,7.93
2023-03-19T09:21:03.018Z,8.43
2023-03-19T09:23:29.939Z,7.87
2023-03-19T09:25:56.965Z,8.63
2023-03-19T09:28:23.938Z,7.97
2023-03-19T09:30:51.971Z,9.10
2023-03-19T09:33:20.710Z,8.52
2023-03-19T09:35:55.810Z,8.38
2023-03-19T09:38:23.002Z,7.95
2023-03-19T09:41:05.212Z,8.30
2023-03-19T09:43:52.396Z,8.10
2023-03-19T09:46:24.925Z,8.48
2023-03-19T09:49:17.656Z,9.57
2023-03-19T09:51:54.042Z,11.27
2023-03-19T09:54:56.921Z,9.27
2023-03-19T09:57:24.145Z,8.40
2023-03-19T09:59:52.560Z,8.55
2023-03-19T10:02:22.237Z,8.27
2023-03-19T10:04:59.362Z,9.38
2023-03-19T10:07:32.858Z,9.57
2023-03-19T10:10:22.208Z,9.15
2023-03-19T10:13:23.163Z,8.68
2023-03-19T10:15:53.086Z,8.23
2023-03-19T10:18:25.139Z,8.65
2023-03-19T10:21:00.983Z,8.95
2023-03-19T10:23:51.858Z,8.65
2023-03-19T10:26:23.942Z,10.27
2023-03-19T10:29:10.383Z,8.30
2023-03-19T10:31:40.030Z,9.40
2023-03-19T10:34:29.099Z,8.88
2023-03-19T10:37:19.965Z,9.15
2023-03-19T10:39:49.190Z,9.57
2023-03-19T10:42:44.009Z,9.70
2023-03-19T10:45:31.986Z,8.45
2023-03-19T10:48:01.841Z,9.25
2023-03-19T10:53:15.080Z,9.00
2023-03-19T10:56:18.005Z,8.77
2023-03-19T10:58:57.482Z,8.63
2023-03-19T11:01:28.726Z,9.23
2023-03-19T11:03:58.443Z,9.48
2023-03-19T11:06:34.203Z,8.95
2023-03-19T11:09:22.659Z,9.13
2023-03-19T11:12:07.217Z,9.40
2023-03-19T11:14:38.517Z,9.50
2023-03-19T11:17:16.583Z,9.20
2023-03-19T11:19:52.417Z,8.52
2023-03-19T11:22:25.924Z,9.63
2023-03-19T11:25:01.182Z,9.15
2023-03-19T11:27:29.988Z,9.73
2023-03-19T11:29:57.199Z,6.47
2023-03-19T11:32:39.568Z,8.57
2023-03-19T11:35:18.025Z,8.68
2023-03-19T11:37:53.997Z,8.38
2023-03-19T11:40:27.877Z,7.47
2023-03-19T11:43:21.520Z,8.15
2023-03-19T11:45:54.500Z,8.35
2023-03-19T11:48:39.816Z,7.35
2023-03-19T11:51:23.166Z,8.18
2023-03-19T11:54:17.722Z,8.50
2023-03-19T11:56:58.661Z,9.07
2023-03-19T12:00:00.424Z,9.00
2023-03-19T12:02:54.240Z,8.70
2023-03-19T12:05:44.132Z,8.15
2023-03-19T12:08:36.522Z,8.43
2023-03-19T12:11:22.308Z,8.48
2023-03-19T12:13:52.435Z,8.18
2023-03-19T12:16:46.492Z,8.05
2023-03-19T12:19:52.102Z,7.75
2023-03-19T12:22:39.247Z,8.32
2023-03-19T12:25:43.767Z,8.52
2023-03-19T12:28:36.583Z,7.20
2023-03-19T12:31:16.893Z,7.80
2023-03-19T12:34:06.146Z,7.30
2023-03-19T12:36:39.966Z,7.03
2023-03-19T12:39:15.474Z,8.35
2023-03-19T12:41:46.467Z,8.18
2023-03-19T12:44:29.210Z,6.82
2023-03-19T12:47:02.903Z,7.40
2023-03-19T12:49:33.005Z,6.30
2023-03-19T12:52:04.240Z,6.82
2023-03-19T12:54:40.000Z,6.45
2023-03-19T12:57:14.576Z,6.00
2023-03-19T13:00:00.156Z,5.68
2023-03-19T13:02:42.376Z,6.40
2023-03-19T13:05:15.069Z,7.43
2023-03-19T13:08:20.908Z,5.62
2023-03-19T13:10:47.924Z,7.25
2023-03-19T13:13:23.757Z,5.75
2023-03-19T13:15:55.990Z,5.68
2023-03-19T13:18:41.187Z,6.15
2023-03-19T13:21:28.478Z,6.57
2023-03-19T13:24:26.526Z,6.45
2023-03-19T13:26:55.715Z,6.53
2023-03-19T13:29:25.887Z,6.30
2023-03-19T13:31:53.978Z,6.10
2023-03-19T13:34:27.219Z,5.97
2023-03-19T13:37:17.182Z,5.32
2023-03-19T13:39:46.759Z,6.22
2023-03-19T13:42:42.389Z,5.85
2023-03-19T13:45:37.693Z,6.15
2023-03-19T13:48:35.887Z,6.20
2023-03-19T13:51:06.565Z,6.03
2023-03-19T13:53:39.509Z,6.00
2023-03-19T13:56:29.213Z,6.18
2023-03-19T13:59:17.521Z,6.57
2023-03-19T14:01:45.171Z,5.90
2023-03-19T14:04:20.149Z,5.93
2023-03-19T14:06:52.218Z,5.97
2023-03-19T14:09:36.295Z,5.87
2023-03-19T14:12:37.635Z,6.30
2023-03-19T14:15:10.867Z,5.85
2023-03-19T14:17:52.159Z,5.93
2023-03-19T14:20:24.110Z,5.62
2023-03-19T14:23:08.941Z,5.57
2023-03-19T14:25:58.283Z,5.75
2023-03-19T14:28:40.419Z,5.43
2023-03-19T14:31:21.998Z,6.32
2023-03-19T14:34:07.851Z,5.22
2023-03-19T14:36:38.705Z,5.57
2023-03-19T14:39:27.765Z,5.00
2023-03-19T14:42:44.780Z,5.95
2023-03-19T14:45:43.588Z,5.37
2023-03-19T14:48:15.524Z,5.83
2023-03-19T14:51:24.881Z,5.22
2023-03-19T14:54:02.522Z,5.70
2023-03-19T14:56:35.178Z,6.00
2023-03-19T14:59:06.224Z,6.93
2023-03-19T15:01:40.522Z,5.12
2023-03-19T15:04:13.298Z,5.47
2023-03-19T15:06:42.460Z,5.32
2023-03-19T15:09:27.305Z,5.87
2023-03-19T15:12:31.585Z,6.03
2023-03-19T15:15:22.581Z,6.03
2023-03-19T15:18:03.752Z,6.28
2023-03-19T15:20:40.584Z,6.62
2023-03-19T15:23:25.743Z,6.22
2023-03-19T15:25:58.138Z,7.60
2023-03-19T15:28:28.178Z,7.03
2023-03-19T15:31:22.194Z,6.05
2023-03-19T15:33:51.667Z,5.68
2023-03-19T15:36:24.928Z,6.37
2023-03-19T15:39:02.892Z,6.30
2023-03-19T15:41:32.973Z,6.50
2023-03-19T15:44:01.815Z,6.32
2023-03-19T15:46:37.023Z,6.23
2023-03-19T15:49:29.421Z,6.82
2023-03-19T15:52:02.611Z,5.95
2023-03-19T15:54:29.793Z,5.75
2023-03-19T15:56:57.582Z,6.35
2023-03-19T15:59:30.221Z,5.75
2023-03-19T16:02:00.207Z,7.57
2023-03-19T16:04:30.041Z,7.57
2023-03-19T16:06:58.774Z,8.15
2023-03-19T16:09:27.605Z,10.15
2023-03-19T16:11:56.099Z,10.98
2023-03-19T16:14:28.281Z,9.90
2023-03-19T16:17:06.110Z,8.73
2023-03-19T16:19:51.001Z,8.48
2023-03-19T16:22:25.104Z,8.00
2023-03-19T16:24:52.913Z,7.78
2023-03-19T16:27:40.165Z,8.13
2023-03-19T16:30:24.041Z,7.75
2023-03-19T16:33:02.512Z,6.80
2023-03-19T16:35:32.108Z,7.90
2023-03-19T16:38:22.522Z,7.32
2023-03-19T16:41:10.401Z,7.37
2023-03-19T16:43:37.698Z,7.00
2023-03-19T16:46:08.647Z,7.60
2023-03-19T16:48:35.621Z,6.93
2023-03-19T16:51:02.814Z,6.70
2023-03-19T16:53:31.992Z,6.60
2023-03-19T16:55:59.755Z,7.75
2023-03-19T16:58:32.012Z,7.87
2023-03-19T17:01:01.410Z,6.62
2023-03-19T17:03:30.401Z,7.62
2023-03-19T17:05:57.498Z,5.40
2023-03-19T17:08:26.432Z,6.22
2023-03-19T17:10:54.635Z,8.87
2023-03-19T17:13:28.714Z,8.23
2023-03-19T17:16:05.941Z,9.35
2023-03-19T17:18:36.753Z,9.40
2023-03-19T17:21:14.533Z,8.00
2023-03-19T17:23:41.595Z,11.65
2023-03-19T17:26:29.347Z,14.52
2023-03-19T17:28:57.204Z,32.05
2023-03-19T17:31:27.418Z,64.07
2023-03-19T17:34:06.222Z,56.92
2023-03-19T17:36:33.995Z,32.25
2023-03-19T17:39:00.977Z,32.80
2023-03-19T17:41:30.568Z,31.40
2023-03-19T17:43:57.518Z,26.20
2023-03-19T17:46:29.584Z,21.58
2023-03-19T17:48:56.584Z,14.57
2023-03-19T17:51:26.388Z,16.52
2023-03-19T17:53:55.694Z,16.00
2023-03-19T17:56:25.647Z,15.73
2023-03-19T17:58:53.303Z,18.40
2023-03-19T18:01:27.578Z,23.10
2023-03-19T18:03:56.497Z,40.78
2023-03-19T18:06:25.894Z,48.43
2023-03-19T18:08:53.250Z,38.13
2023-03-19T18:11:20.403Z,57.55
2023-03-19T18:13:47.404Z,60.78
2023-03-19T18:16:17.110Z,33.55
2023-03-19T18:21:16.066Z,26.15
2023-03-19T18:23:44.182Z,25.12
2023-03-19T18:26:17.239Z,16.35
2023-03-19T18:28:44.916Z,36.10
2023-03-19T18:31:19.204Z,40.42
2023-03-19T18:33:51.929Z,41.78
2023-03-19T18:36:25.962Z,38.05
2023-03-19T18:38:55.367Z,52.55
2023-03-19T18:41:24.226Z,29.37
2023-03-19T18:43:51.251Z,43.80
2023-03-19T18:46:29.769Z,34.53
2023-03-19T18:49:17.226Z,33.65
2023-03-19T18:52:00.702Z,32.08
2023-03-19T18:54:28.417Z,26.17
2023-03-19T18:56:56.540Z,37.78
2023-03-19T18:59:33.215Z,19.77
2023-03-19T19:02:22.129Z,23.80
2023-03-19T19:04:49.195Z,34.20
2023-03-19T19:07:16.980Z,39.63
2023-03-19T19:09:44.089Z,31.25
2023-03-19T19:12:15.153Z,33.85
2023-03-19T19:14:44.341Z,33.20
2023-03-19T19:17:20.170Z,28.83
2023-03-19T19:19:47.256Z,21.90
2023-03-19T19:22:16.680Z,22.52
2023-03-19T19:24:44.304Z,17.75
2023-03-19T19:27:37.375Z,16.85
2023-03-19T19:30:05.069Z,19.30
2023-03-19T19:32:32.599Z,30.50
2023-03-19T19:34:59.604Z,27.00
2023-03-19T19:37:26.593Z,28.58
2023-03-19T19:39:53.742Z,22.23
2023-03-19T19:42:22.415Z,19.70
2023-03-19T19:44:59.039Z,21.10
2023-03-19T19:47:27.508Z,15.65
2023-03-19T19:49:54.475Z,12.88
2023-03-19T19:52:21.656Z,11.10
2023-03-19T19:54:48.810Z,14.10
2023-03-19T19:57:22.967Z,13.07
2023-03-19T19:59:52.047Z,11.07
2023-03-19T20:02:29.611Z,11.52
2023-03-19T20:04:58.161Z,18.27
2023-03-19T20:07:25.108Z,19.60
2023-03-19T20:09:52.154Z,13.30
2023-03-19T20:12:22.943Z,12.37
2023-03-19T20:14:52.526Z,10.02
2023-03-19T20:17:21.548Z,8.38
2023-03-19T20:19:49.168Z,9.80
2023-03-19T20:22:16.475Z,9.77
2023-03-19T20:24:43.742Z,10.82
2023-03-19T20:27:23.437Z,9.77
2023-03-19T20:29:51.045Z,10.57
2023-03-19T20:32:33.275Z,12.07
2023-03-19T20:35:04.260Z,63.70
2023-03-19T20:37:31.321Z,77.70
2023-03-19T20:39:58.293Z,29.52
2023-03-19T20:42:27.070Z,29.77
2023-03-19T20:44:58.722Z,15.82
2023-03-19T20:47:26.260Z,11.77
2023-03-19T20:49:53.562Z,11.75
2023-03-19T20:52:20.942Z,10.52
2023-03-19T20:54:48.506Z,11.40
2023-03-19T20:57:24.460Z,15.95
2023-03-19T20:59:51.396Z,15.32
2023-03-19T21:02:24.684Z,15.88
2023-03-19T21:04:51.973Z,15.30
2023-03-19T21:07:33.894Z,15.27
2023-03-19T21:10:03.722Z,15.57
2023-03-19T21:12:32.760Z,14.87
2023-03-19T21:15:01.129Z,14.43
2023-03-19T21:17:28.897Z,11.52
2023-03-19T21:19:56.957Z,12.50
2023-03-19T21:22:28.741Z,12.07
2023-03-19T21:25:07.040Z,11.30
2023-03-19T21:27:37.216Z,11.95
2023-03-19T21:30:05.816Z,11.00
2023-03-19T21:32:32.838Z,13.13
2023-03-19T21:34:59.946Z,14.32
2023-03-19T21:37:26.882Z,11.93
2023-03-19T21:39:53.977Z,12.10
2023-03-19T21:42:22.857Z,11.68
2023-03-19T21:44:57.299Z,8.60
2023-03-19T21:47:25.907Z,12.52
2023-03-19T21:49:52.808Z,11.90
2023-03-19T21:52:22.178Z,13.80
2023-03-19T21:54:49.379Z,13.95
2023-03-19T21:57:17.498Z,11.85
2023-03-19T21:59:48.766Z,14.40
2023-03-19T22:02:27.571Z,13.32
2023-03-19T22:04:54.744Z,12.50
2023-03-19T22:07:21.840Z,13.70
2023-03-19T22:09:48.982Z,13.25
2023-03-19T22:12:27.669Z,14.57
2023-03-19T22:14:55.058Z,13.10
2023-03-19T22:17:25.838Z,12.27
2023-03-19T22:19:52.863Z,12.90
2023-03-19T22:22:19.837Z,13.30
2023-03-19T22:24:46.790Z,13.88
2023-03-19T22:27:17.558Z,15.48
2023-03-19T22:29:47.423Z,15.73
2023-03-19T22:34:44.502Z,14.90
2023-03-19T22:37:28.162Z,15.90
2023-03-19T22:39:55.716Z,14.77
2023-03-19T22:42:26.405Z,14.35
2023-03-19T22:44:54.791Z,14.93
2023-03-19T22:47:25.004Z,14.02
2023-03-19T22:49:52.638Z,15.63
2023-03-19T22:52:19.969Z,15.60
2023-03-19T22:54:48.095Z,14.75
2023-03-19T22:57:15.434Z,14.23
2023-03-19T22:59:43.464Z,14.98
2023-03-19T23:02:14.844Z,14.52
2023-03-19T23:04:41.965Z,14.52
2023-03-19T23:07:12.863Z,14.13
2023-03-19T23:09:40.139Z,14.55
2023-03-19T23:14:34.927Z,13.68
2023-03-19T23:17:07.598Z,17.90
2023-03-19T23:19:36.923Z,18.67
2023-03-19T23:22:05.719Z,19.62
2023-03-19T23:24:33.936Z,21.73
2023-03-19T23:27:02.592Z,25.88
2023-03-19T23:29:35.239Z,15.90
2023-03-19T23:32:04.617Z,16.77
2023-03-19T23:34:35.287Z,19.05
2023-03-19T23:37:07.280Z,21.55
2023-03-19T23:39:34.315Z,22.58
2023-03-19T23:42:01.287Z,24.15
2023-03-19T23:44:29.484Z,19.98
2023-03-19T23:47:01.928Z,18.67
2023-03-19T23:49:32.664Z,18.48
2023-03-19T23:52:01.046Z,16.12
2023-03-19T23:54:36.803Z,16.70
2023-03-19T23:57:08.409Z,15.02
2023-03-19T23:59:38.677Z,13.00
